Weather observations for the past three days for
Bryan Coulter Field
Metric (Imperial)
Date Time (cdt) Wind (kph) Vis. (km) Weather Sky Cond. Temperature (ºC) Relative Humidity Wind Chill (°C) Heat Index (°C) Pressure Precipitation (cm)
Air Dwpt 6 hour altimeter (cm) sea level (mb) 1 hr 3 hr 6 hr
Max. Min.
31 09:55 Calm 16.09 Partly Cloudy SCT019 29.8 23.6 69% 34 76.35 0.0
31 09:35 SW 9 16.09 Partly Cloudy SCT017 29.9 24.3 72% 35 76.35 0.0
31 09:15 S 7 16.09 Partly Cloudy SCT015 28.8 24.5 78% 34 76.35 0.0
31 08:55 SW 6 16.09 Fair CLR 28 24.3 80% 32 76.35 0.0
31 08:35 Calm 16.09 Fair CLR 27.1 24.2 84% 30 76.33 0.0
31 08:15 Calm 16.09 Fair CLR 26.2 24.1 88% 28 76.3 0.0
31 07:55 Calm 16.09 Fair CLR 25.3 24 93% 26 76.3 0.0
31 07:35 Calm 16.09 Fair CLR 24.5 23.5 94% 24 76.28 0.0
31 07:15 Calm 16.09 Fair CLR 24.7 23.4 93% 25 76.25 0.0
31 06:55 SW 6 16.09 Fair CLR 24.8 23.5 28.3 24.8 93% 25 76.25 0.0
31 06:35 Calm 16.09 Fair CLR 25 23.5 91% 26 76.25 0.0
31 06:15 S 6 16.09 Fair CLR 25 23.4 91% 26 76.25 0.0
31 05:55 SW 6 16.09 Fair CLR 25.2 23.3 89% 26 76.25 0.0
31 05:35 Calm 16.09 Fair CLR 25.2 23.2 89% 26 76.25 0.0
31 05:15 S 6 16.09 Fair CLR 25.4 23.1 87% 27 76.25 0.0
31 04:55 S 6 16.09 Fair CLR 25.5 23.1 87% 27 76.23 0.0
31 04:35 S 6 16.09 Fair CLR 25.6 23 86% 27 76.23 0.0
31 04:15 S 7 16.09 Fair CLR 25.8 23 85% 27 76.23 0.0
31 03:55 S 7 16.09 Fair CLR 26.1 23 83% 28 76.23 0.0
31 03:35 S 9 16.09 Fair CLR 26.3 22.9 82% 28 76.2 0.0
31 03:15 S 9 16.09 Fair CLR 26.5 22.8 80% 29 76.23 0.0
31 02:55 S 13 16.09 Fair CLR 26.7 22.7 79% 29 76.23 0.0
31 02:35 S 11 16.09 Fair CLR 26.9 22.6 77% 29 76.23 0.0
31 02:15 S 11 16.09 Fair CLR 27.2 22.5 76% 30 76.23 0.0
31 01:55 S 11 16.09 Fair CLR 27.5 22.5 74% 30 76.25 0.0
31 01:35 S 13 16.09 Fair CLR 27.5 22.5 74% 30 76.25 0.0
31 01:15 S 9 16.09 Fair CLR 27.8 22.5 73% 31 76.25 0.0
31 00:55 S 15 16.09 Fair CLR 28.3 22.5 35.5 28.3 71% 31 76.25 0.0
31 00:35 S 13 16.09 Fair CLR 28.6 22.5 70% 32 76.25 0.0
31 00:15 S 13 16.09 Fair CLR 28.9 22.5 68% 32 76.23 0.0
30 23:55 S 11 16.09 Fair CLR 29.1 22.5 68% 32 76.2 0.0
30 23:35 S 19 G 31 16.09 Fair CLR 29.5 22.5 66% 33 76.2 0.0
30 23:15 S 22 G 30 16.09 Fair CLR 29.8 22.2 64% 33 76.2 0.0
30 22:55 S 19 16.09 Fair CLR 30.1 22 62% 33 76.17 0.0
30 22:35 S 15 16.09 Fair CLR 30.6 21.5 58% 34 76.17 0.0
30 22:15 S 19 16.09 Fair CLR 31.1 21 55% 34 76.15 0.0
30 21:55 S 13 16.09 Fair CLR 31.6 19.7 49% 33 76.12 0.0
30 21:35 S 9 16.09 Fair CLR 31.6 18.6 46% 33 76.1 0.0
30 21:15 S 6 16.09 Fair CLR 29.9 19 52% 31 76.07 0.0
30 20:55 S 7 16.09 Fair CLR 30 18.8 51% 31 76.05 0.0
30 20:35 SE 6 16.09 Fair CLR 30.9 18.7 48% 32 76.05 0.0
30 20:15 SE 7 16.09 Fair CLR 32 18.6 45% 33 76.05 0.0
30 19:55 SE 11 16.09 Fair CLR 32.6 18.1 42% 34 76.05 0.0
30 19:35 SE 13 16.09 Fair CLR 34.1 18 38% 35 76.02 0.0
30 19:15 S 17 16.09 Fair CLR 35 17.9 36% 36 76.02 0.0
30 18:55 SE 17 16.09 Fair CLR 35.5 18.2 37.7 34 36% 37 76.02 0.0
30 18:35 SE 17 16.09 Fair CLR 36 18.5 36% 38 76.02 0.0
30 18:15 SE 20 G 28 16.09 Partly Cloudy SCT075 36.2 18.8 36% 38 76.02 0.0
30 17:55 SE 24 16.09 Mostly Cloudy BKN075 36.8 18.7 34% 39 76.02 0.0
30 17:35 S 9 G 15 16.09 Fair CLR 37.2 17.5 31% 38 76.05 0.0
30 17:15 S 13 G 28 16.09 Fair CLR 37.1 16 29% 37 76.05 0.0
30 16:55 S 7 16.09 Fair CLR 37.3 16.6 29% 38 76.05 0.0
30 16:35 S 11 16.09 Fair CLR 37 17.2 31% 38 76.07 0.0
30 16:15 SE 17 G 26 16.09 Partly Cloudy SCT065 SCT095 36.8 18 33% 38 76.07 0.0
30 15:55 S 20 G 30 16.09 Mostly Cloudy BKN065 BKN085 37.5 19.1 34% 40 76.1 0.0
30 15:35 SW 11 16.09 Partly Cloudy SCT065 SCT085 37.1 18.9 34% 39 76.12 0.0
30 15:15 SE 7 16.09 Partly Cloudy SCT065 36.7 19.1 36% 39 76.15 0.0
30 14:55 S 17 16.09 Partly Cloudy SCT065 36.5 18.4 34% 38 76.17 0.0
30 14:35 S 7 G 15 16.09 Partly Cloudy SCT060 36.1 19.4 37% 38 76.2 0.0
30 14:15 SE 9 16.09 Partly Cloudy SCT060 36.1 19.2 37% 38 76.23 0.0
30 13:55 S 7 16.09 Fair CLR 35.3 19.8 40% 38 76.25 0.0
30 13:35 S 17 16.09 Fair CLR 35.6 19.7 39% 38 76.28 0.0
30 13:15 SE 19 16.09 Fair CLR 35.1 20.4 42% 38 76.3 0.0
30 12:55 S 15 16.09 Fair CLR 34.2 20.3 34.9 23.5 44% 37 76.33 0.0
30 12:35 SE 13 16.09 Fair CLR 33.6 20.5 46% 36 76.35 0.0
30 12:15 S 15 16.09 Fair CLR 33.3 21.2 49% 37 76.35 0.0
30 11:55 S 11 16.09 Fair CLR 32.8 21.5 51% 36 76.4 0.0
30 11:35 Calm 16.09 Partly Cloudy SCT032 31.8 22.3 57% 36 76.4 0.0
30 11:15 Calm 16.09 Partly Cloudy SCT032 31.7 22.6 59% 36 76.4 0.0
30 10:55 S 13 16.09 Fair CLR 31.6 22.3 58% 36 76.4 0.0
30 10:35 SW 13 16.09 Fair CLR 30.4 22.5 63% 34 76.4 0.0
30 10:15 S 11 16.09 Fair CLR 29.8 23.3 68% 34 76.4 0.0
30 09:55 SW 15 16.09 Fair CLR 29.5 23.4 70% 34 76.4 0.0
30 09:35 SW 15 16.09 Partly Cloudy SCT013 29.1 23.8 73% 34 76.4 0.0
30 09:15 S 11 16.09 Mostly Cloudy BKN011 27.8 24 80% 32 76.38 0.0
30 08:55 SW 13 16.09 Mostly Cloudy BKN009 27.3 24.3 84% 31 76.4 0.0
30 08:35 SW 7 16.09 Mostly Cloudy BKN009 26.6 24.3 87% 29 76.4 0.0
30 08:15 S 6 16.09 Partly Cloudy SCT009 26 24.5 91% 28 76.38 0.0
30 07:55 S 6 16.09 Partly Cloudy SCT009 25.2 24.5 96% 26 76.35 0.0
30 07:35 Calm 16.09 Overcast OVC009 24.4 24 98% 24 76.35 0.0
30 07:15 Calm 16.09 Partly Cloudy SCT009 23.6 23.1 97% 76.33 0.0
30 06:55 Calm 16.09 Fair CLR 23.6 23 28 23.3 96% 76.3 0.0
30 06:35 S 6 16.09 Fair CLR 23.3 22.7 96% 76.3 0.0
30 06:15 Calm 16.09 Fair CLR 23.9 23.1 95% 23 76.28 0.0
30 05:55 Calm 16.09 Fair CLR 24 23.1 95% 23 76.28 0.0
30 05:35 Calm 16.09 Fair CLR 24.7 23.3 92% 25 76.28 0.0
30 05:15 Calm 16.09 Fair CLR 25.1 23.5 91% 26 76.25 0.0
30 04:55 S 6 16.09 Fair CLR 25.3 23.5 90% 26 76.25 0.0
30 04:35 S 6 16.09 Fair CLR 25.5 23.6 89% 27 76.25 0.0
30 04:15 S 6 16.09 Fair CLR 25.8 23.6 88% 27 76.25 0.0
30 03:55 S 7 16.09 Fair CLR 26 23.5 86% 28 76.25 0.0
30 03:35 S 7 16.09 Fair CLR 26.2 23.5 85% 28 76.23 0.0
30 03:15 S 7 16.09 Fair CLR 26.5 23.5 84% 29 76.25 0.0
30 02:55 S 9 16.09 Fair CLR 26.6 23.5 83% 29 76.25 0.0
30 02:35 S 9 16.09 Fair CLR 27 23.5 81% 30 76.25 0.0
30 02:15 S 9 16.09 Fair CLR 27.1 23.5 81% 30 76.25 0.0
30 01:55 S 13 16.09 Fair CLR 27.3 23.5 80% 30 76.28 0.0
30 01:35 S 9 16.09 Fair CLR 27.5 23.5 79% 31 76.25 0.0
30 01:15 S 15 16.09 Fair CLR 27.8 23.3 77% 31 76.25 0.0
30 00:55 S 15 16.09 Fair CLR 28.1 23.3 35.3 28.1 75% 32 76.25 0.0
30 00:35 SW 13 16.09 Fair CLR 28.3 23.2 74% 32 76.25 0.0
30 00:15 S 19 G 28 16.09 Fair CLR 28.6 23.2 73% 32 76.25 0.0
29 23:55 S 15 16.09 Fair CLR 28.9 23.2 71% 33 76.25 0.0
29 23:35 S 20 G 28 16.09 Fair CLR 29.2 23.3 71% 33 76.25 0.0
29 23:15 S 19 G 26 16.09 Fair CLR 29.5 23.2 69% 34 76.25 0.0
29 22:55 S 17 16.09 Fair CLR 29.7 22.9 67% 34 76.25 0.0
29 22:35 S 15 16.09 Fair CLR 30.3 22.5 63% 34 76.25 0.0
29 22:15 S 17 16.09 Fair CLR 31.1 21.3 56% 34 76.23 0.0
29 21:55 S 6 16.09 Fair CLR 29.6 19.7 55% 31 76.2 0.0
29 21:35 S 6 16.09 Fair CLR 31.2 19.5 50% 33 76.17 0.0
29 21:15 Calm 16.09 Fair CLR 32 19.3 47% 34 76.15 0.0
29 20:55 S 6 16.09 Fair CLR 32 19 46% 33 76.12 0.0
29 20:35 S 6 16.09 Fair CLR 32.3 18.8 45% 34 76.12 0.0
29 20:15 S 6 16.09 Fair CLR 32.9 18.7 43% 34 76.12 0.0
29 19:55 S 7 16.09 Fair CLR 33.4 18.5 41% 35 76.12 0.0
29 19:35 S 11 16.09 Fair CLR 34.3 19 40% 36 76.12 0.0
29 19:15 SE 11 16.09 Fair CLR 34.9 19 39% 37 76.12 0.0
29 18:55 S 13 16.09 Fair CLR 35.1 18.9 37.9 34.5 38% 37 76.12 0.0
29 18:35 SE 15 16.09 Partly Cloudy SCT100 35.8 19.2 38% 38 76.12 0.0
29 18:15 SE 17 16.09 Partly Cloudy SCT100 35.1 19.6 40% 37 76.12 0.0
29 17:55 S 9 16.09 Fair CLR 36.5 19.6 37% 39 76.12 0.0
29 17:35 SE 17 G 26 16.09 Partly Cloudy SCT070 37 20 37% 40 76.12 0.0
29 17:15 SE 11 16.09 Partly Cloudy SCT070 37.1 19.5 36% 40 76.12 0.0
29 16:55 SE 11 16.09 Partly Cloudy SCT110 37.1 19.1 35% 39 76.12 0.0
29 16:35 SE 15 16.09 Partly Cloudy SCT075 SCT090 SCT110 37.9 19.2 33% 40 76.15 0.0
29 16:15 SE 17 16.09 Partly Cloudy SCT075 SCT090 37.5 18.1 32% 39 76.17 0.0
29 15:55 SE 17 16.09 Fair CLR 37.4 18 32% 39 76.17 0.0
29 15:35 SE 7 16.09 Partly Cloudy SCT070 37.4 19 34% 40 76.2 0.0
29 15:15 SE 20 G 26 16.09 Partly Cloudy SCT070 37.1 19.6 36% 40 76.23 0.0
29 14:55 SE 7 16.09 Partly Cloudy SCT065 37 19.7 36% 40 76.25 0.0
29 14:35 S 9 16.09 Fair CLR 36.7 19.9 37% 40 76.28 0.0
29 14:15 SE 11 16.09 Partly Cloudy SCT060 36.6 19.3 36% 39 76.3 0.0
29 13:55 Calm 16.09 Fair CLR 35.8 20.1 40% 39 76.35 0.0
29 13:35 S 15 16.09 Partly Cloudy SCT055 35.8 19.8 39% 38 76.35 0.0
29 13:15 SE 15 16.09 Fair CLR 35.3 21 43% 39 76.38 0.0
29 12:55 S 13 16.09 Fair CLR 35.8 20.3 35.8 21.1 40% 39 76.4 0.0
29 12:35 SW 9 16.09 Fair CLR 34.7 20.9 44% 38 76.43 0.0
29 12:15 Calm 16.09 Fair CLR 33.6 22 51% 38 76.43 0.0
29 11:55 W 6 16.09 Fair CLR 33.4 21.6 50% 37 76.45 0.0
29 11:35 S 9 16.09 Fair CLR 33.1 22.1 52% 37 76.45 0.0
29 11:15 SW 6 16.09 Fair CLR 32.4 22.7 57% 37 76.45 0.0
29 10:55 W 6 16.09 Fair CLR 31.8 23 60% 37 76.45 0.0
29 10:35 SW 6 16.09 Fair CLR 31.5 23.3 62% 36 76.45 0.0
29 10:15 Calm 16.09 Fair CLR 30.6 23.6 66% 36 76.45 0.0
29 09:55 SW 9 16.09 Fair CLR 29.9 23.5 69% 34 76.43 0.0
29 09:35 Calm 16.09 Fair CLR 28.7 22.9 71% 32 76.43 0.0
29 09:15 Calm 16.09 Fair CLR 27.5 22.5 74% 30 76.43 0.0
29 08:55 Calm 16.09 Fair CLR 26.4 21.5 75% 28 76.43 0.0
29 08:35 Calm 16.09 Fair CLR 24.9 21.5 81% 26 76.43 0.0
29 08:15 Calm 16.09 Fair CLR 23.3 21.3 89% 76.43 0.0
29 07:55 Calm 16.09 Fair CLR 22.5 21 91% 76.43 0.0
29 07:35 Calm 16.09 Fair CLR 21.6 20.6 94% 76.43 0.0
29 07:15 Calm 16.09 Fair CLR 21.7 20.5 93% 76.4 0.0
29 06:55 Calm 16.09 Fair CLR 21.6 20.5 24.8 21.2 94% 76.4 0.0
29 06:35 Calm 16.09 Fair CLR 21.4 20.4 94% 76.38 0.0
29 06:15 Calm 16.09 Fair CLR 21.3 20.3 94% 76.38 0.0
29 05:55 NE 7 16.09 Fair CLR 21.5 20 91% 76.38 0.0
29 05:35 Calm 16.09 Fair CLR 22.1 20.5 91% 76.38 0.0
29 05:15 Calm 16.09 Fair CLR 21.7 20.3 92% 76.38 0.0
29 04:55 Calm 16.09 Fair CLR 22.1 20.3 90% 76.38 0.0
29 04:35 Calm 16.09 Fair CLR 22.1 20.1 88% 76.38 0.0
29 04:15 Calm 16.09 Fair CLR 22.3 20.5 90% 76.35 0.0
29 03:55 Calm 16.09 Fair CLR 22.3 20.5 90% 76.38 0.0
29 03:35 Calm 16.09 Fair CLR 22.4 20.2 87% 76.38 0.0
29 03:15 NW 6 16.09 Fair CLR 23.1 20.5 85% 76.38 0.0
29 02:55 Calm 16.09 Fair CLR 22.4 20.2 87% 76.38 0.0
29 02:35 E 6 16.09 Fair CLR 22.8 20 84% 76.38 0.0
29 02:15 Calm 16.09 Fair CLR 23.2 20.4 84% 76.35 0.0
29 01:55 Calm 16.09 Fair CLR 24 20.1 79% 24 76.35 0.0
29 01:35 Calm 16.09 Fair CLR 24.5 20.3 78% 25 76.35 0.0
29 01:15 S 6 16.09 Fair CLR 24.5 20.2 77% 25 76.35 0.0
29 00:55 Calm 16.09 Fair CLR 24.7 20.2 29 24.2 76% 26 76.35 0.0
29 00:35 Calm 16.09 Fair CLR 24.6 20.1 76% 25 76.35 0.0
29 00:15 Calm 16.09 Fair CLR 25 20.1 74% 26 76.35 0.0
28 23:55 Calm 16.09 Fair CLR 24.8 20 75% 26 76.35 0.0
28 23:35 Calm 16.09 Fair CLR 25.4 20 72% 26 76.35 0.0
28 23:15 Calm 16.09 Fair CLR 25.5 20 72% 27 76.33 0.0
28 22:55 SW 7 16.09 Fair CLR 25.9 19.7 69% 27 76.33 0.0
28 22:35 Calm 16.09 Fair CLR 25.2 20.2 74% 26 76.33 0.0
28 22:15 Calm 16.09 Fair CLR 24.5 20.5 78% 25 76.3 0.0
28 21:55 Calm 16.09 Fair CLR 25.2 20.5 75% 26 76.28 0.0
28 21:35 S 7 16.09 Fair CLR 25.3 20.6 75% 26 76.25 0.0
28 21:15 Calm 16.09 Fair CLR 25.9 20.6 73% 27 76.2 0.0
28 20:55 SW 6 16.09 Fair CLR 26 20.7 73% 27 76.17 0.0
28 20:35 S 7 16.09 Fair CLR 26.1 20.7 72% 28 76.2 0.0
28 20:15 S 11 16.09 Fair CLR 26.3 20.8 72% 28 76.2 0.0
28 19:55 S 9 16.09 Fair CLR 26.6 20.8 71% 28 76.17 0.0
28 19:35 S 13 16.09 Fair CLR 27.4 20.9 68% 29 76.23 0.0
28 19:15 S 17 16.09 Fair CLR 28.1 20.7 64% 30 76.2 0.0
28 18:55 S 28 G 39 16.09 Fair CLR 29.1 20.8 38.1 29.1 61% 31 76.23 0.0
28 18:35 SE 17 16.09 Fair CLR 30.5 18 47% 31 76.2 0.0
28 18:15 SE 7 16.09 Fair CLR 30.3 20 54% 32 76.17 0.0
28 17:55 Calm 16.09 Fair CLR 30 20.3 56% 32 76.17 0.0
28 17:35 Calm 16.09 Fair CLR 29.9 20.1 56% 32 76.17 0.0
28 17:15 NW 13 16.09 Partly Cloudy SCT095 30.1 20.2 55% 32 76.15 0.0
28 16:55 Calm 16.09 Thunderstorm in Vicinity SCT080 32.5 19.1 45% 34 76.15 0.0
28 16:35 E 17 G 22 16.09 Partly Cloudy SCT075 33.9 18.6 40% 35 76.15 0.0
28 16:15 E 22 G 35 16.09 Partly Cloudy SCT080 SCT085 34.2 19.8 43% 37 76.15 0.0
28 15:55 Calm 16.09 Mostly Cloudy SCT065 BKN080 33.8 20.5 46% 37 76.17 0.0
28 15:35 E 19 G 33 16.09 Overcast OVC065 34.6 21 45% 38 76.17 0.0
28 15:15 E 6 16.09 Mostly Cloudy BKN065 37.2 20.7 38% 41 76.17 0.0
28 14:55 Calm 16.09 Fair CLR 37.5 21.2 39% 42 76.17 0.0
28 14:35 W 6 16.09 Thunderstorm in Vicinity SCT070 37 20.9 39% 41 76.2 0.0
28 14:15 Calm 16.09 Fair CLR 35.7 20.7 42% 39 76.25 0.0
28 13:55 Calm 16.09 Fair CLR 36.7 20.9 40% 40 76.28 0.0
28 13:35 E 6 16.09 Partly Cloudy SCT075 36 21.5 43% 40 76.3 0.0
28 13:15 E 6 16.09 Mostly Cloudy BKN075 35.1 21.1 44% 39 76.33 0.0
28 12:55 S 7 16.09 Mostly Cloudy BKN075 BKN085 35 21.5 35 24.9 45% 39 76.35 0.0
28 12:35 S 7 16.09 Fair CLR 34.8 21.1 45% 38 76.35 0.0
28 12:15 Calm 16.09 Fair CLR 33.9 21.3 48% 37 76.38 0.0
28 11:55 E 6 16.09 Fair CLR 34.3 21.4 47% 38 76.4 0.0
28 11:35 Calm 16.09 Fair CLR 33.4 21.6 50% 37 76.4 0.0
28 11:15 Calm 16.09 Fair CLR 32.8 22.1 53% 37 76.4 0.0
28 10:55 Calm 16.09 Fair CLR 32.7 21.8 53% 36 76.4 0.0
28 10:35 S 6 16.09 Fair CLR 31.8 21.9 56% 35 76.4 0.0
28 10:15 Calm 16.09 Fair CLR 30.9 22 59% 34 76.38 0.0
Date Time (cdt) Wind (kph) Vis. (km) Weather Sky Cond. Air Dwpt Max. Min. Relative Humidity Wind Chill (°C) Heat Index (°C) altimeter (cm) sea level (mb) 1 hr 3 hr 6 hr
6 hour
Temperature (ºC) Pressure Precipitation (cm)